createdAt,value
2018-01-13T00:02:20.656Z,98449.05
2018-01-13T00:04:51.795Z,98455.09
2018-01-13T00:07:23.056Z,98449.66
2018-01-13T00:09:54.149Z,98451.88
2018-01-13T00:12:25.241Z,98452.68
2018-01-13T00:14:56.353Z,98449.47
2018-01-13T00:17:27.416Z,98446.42
2018-01-13T00:19:58.534Z,98445.92
2018-01-13T00:22:37.618Z,98447.65
2018-01-13T00:25:09.837Z,98451.38
2018-01-13T00:27:40.945Z,98453.67
2018-01-13T00:30:12.281Z,98450.50
2018-01-13T00:32:43.532Z,98448.96
2018-01-13T00:35:14.623Z,98445.73
2018-01-13T00:37:45.695Z,98440.95
2018-01-13T00:40:16.864Z,98434.53
2018-01-13T00:42:48.325Z,98435.75
2018-01-13T00:45:19.461Z,98432.06
2018-01-13T00:47:50.617Z,98432.73
2018-01-13T00:50:22.221Z,98429.91
2018-01-13T00:52:53.898Z,98431.19
2018-01-13T00:55:25.005Z,98419.41
2018-01-13T00:57:57.331Z,98416.97
2018-01-13T01:00:28.477Z,98419.96
2018-01-13T01:02:59.751Z,98416.11
2018-01-13T01:05:30.838Z,98418.81
2018-01-13T01:08:02.018Z,98414.49
2018-01-13T01:10:33.294Z,98423.92
2018-01-13T01:13:04.425Z,98419.62
2018-01-13T01:15:35.573Z,98424.42
2018-01-13T01:18:06.682Z,98419.69
2018-01-13T01:20:38.293Z,98422.73
2018-01-13T01:23:09.541Z,98410.07
2018-01-13T01:25:41.653Z,98415.70
2018-01-13T01:28:12.748Z,98412.31
2018-01-13T01:30:43.838Z,98417.91
2018-01-13T01:33:15.138Z,98411.13
2018-01-13T01:35:46.243Z,98411.01
2018-01-13T01:38:17.337Z,98423.67
2018-01-13T01:40:48.433Z,98423.67
2018-01-13T01:43:19.626Z,98421.06
2018-01-13T01:45:50.881Z,98424.77
2018-01-13T01:48:26.026Z,98429.80
2018-01-13T01:50:57.129Z,98433.66
2018-01-13T01:53:28.412Z,98428.41
2018-01-13T01:55:59.496Z,98424.36
2018-01-13T01:58:30.717Z,98414.43
2018-01-13T02:01:01.833Z,98414.84
2018-01-13T02:03:32.917Z,98419.47
2018-01-13T02:06:04.008Z,98421.38
2018-01-13T02:08:35.205Z,98423.05
2018-01-13T02:11:06.304Z,98420.17
2018-01-13T02:13:37.805Z,98425.22
2018-01-13T02:16:09.677Z,98419.68
2018-01-13T02:18:40.910Z,98424.77
2018-01-13T02:21:12.057Z,98427.31
2018-01-13T02:23:43.165Z,98431.36
2018-01-13T02:26:14.307Z,98426.22
2018-01-13T02:28:45.490Z,98425.91
2018-01-13T02:31:16.647Z,98427.69
2018-01-13T02:33:47.773Z,98424.76
2018-01-13T02:36:18.844Z,98425.75
2018-01-13T02:38:50.090Z,98427.06
2018-01-13T02:41:21.333Z,98418.26
2018-01-13T02:43:52.448Z,98414.40
2018-01-13T02:46:23.522Z,98413.46
2018-01-13T02:48:54.630Z,98407.08
2018-01-13T02:51:25.826Z,98413.99
2018-01-13T02:53:56.917Z,98407.39
2018-01-13T02:56:28.117Z,98404.89
2018-01-13T02:58:59.217Z,98406.05
2018-01-13T03:01:30.613Z,98406.41
2018-01-13T03:04:01.710Z,98396.55
2018-01-13T03:06:32.913Z,98395.06
2018-01-13T03:09:04.875Z,98391.70
2018-01-13T03:11:37.263Z,98386.92
2018-01-13T03:14:08.495Z,98395.23
2018-01-13T03:16:39.612Z,98390.69
2018-01-13T03:19:10.902Z,98398.34
2018-01-13T03:21:42.685Z,98395.27
2018-01-13T03:24:13.908Z,98383.16
2018-01-13T03:26:44.991Z,98390.78
2018-01-13T03:29:16.104Z,98387.39
2018-01-13T03:31:48.478Z,98388.56
2018-01-13T03:34:19.831Z,98386.30
2018-01-13T03:36:50.969Z,98385.02
2018-01-13T03:39:22.121Z,98384.52
2018-01-13T03:41:53.189Z,98377.25
2018-01-13T03:44:24.364Z,98377.45
2018-01-13T03:46:55.563Z,98372.23
2018-01-13T03:49:26.798Z,98366.59
2018-01-13T03:51:57.906Z,98366.07
2018-01-13T03:54:29.066Z,98362.23
2018-01-13T03:57:00.356Z,98364.94
2018-01-13T03:59:31.445Z,98362.32
2018-01-13T04:02:02.583Z,98358.83
2018-01-13T04:04:33.660Z,98355.41
2018-01-13T04:07:04.813Z,98348.34
2018-01-13T04:09:36.157Z,98348.44
2018-01-13T04:12:07.437Z,98356.91
2018-01-13T04:14:38.692Z,98352.27
2018-01-13T04:17:09.743Z,98352.08
2018-01-13T04:19:40.977Z,98358.21
2018-01-13T04:22:12.137Z,98354.58
2018-01-13T04:24:43.469Z,98357.41
2018-01-13T04:27:14.614Z,98355.50
2018-01-13T04:29:45.763Z,98353.41
2018-01-13T04:32:16.900Z,98355.50
2018-01-13T04:34:48.072Z,98354.03
2018-01-13T04:37:19.254Z,98356.95
2018-01-13T04:39:50.326Z,98353.53
2018-01-13T04:42:21.615Z,98349.80
2018-01-13T04:44:52.755Z,98352.01
2018-01-13T04:47:24.006Z,98351.67
2018-01-13T04:49:55.158Z,98344.24
2018-01-13T04:52:26.298Z,98351.38
2018-01-13T04:54:57.579Z,98351.98
2018-01-13T04:57:28.636Z,98347.53
2018-01-13T04:59:59.783Z,98352.89
2018-01-13T05:02:30.877Z,98351.02
2018-01-13T05:05:02.041Z,98345.95
2018-01-13T05:07:33.289Z,98354.28
2018-01-13T05:10:04.452Z,98355.59
2018-01-13T05:12:35.685Z,98360.81
2018-01-13T05:15:06.794Z,98355.09
2018-01-13T05:17:37.822Z,98362.06
2018-01-13T05:20:08.966Z,98354.69
2018-01-13T05:22:40.039Z,98360.59
2018-01-13T05:25:11.239Z,98358.34
2018-01-13T05:27:42.362Z,98355.52
2018-01-13T05:30:13.476Z,98355.19
2018-01-13T05:32:44.567Z,98352.44
2018-01-13T05:35:15.713Z,98347.35
2018-01-13T05:37:46.951Z,98346.05
2018-01-13T05:40:18.197Z,98341.45
2018-01-13T05:42:49.440Z,98348.82
2018-01-13T05:45:20.526Z,98349.03
2018-01-13T05:47:52.213Z,98348.85
2018-01-13T05:50:23.352Z,98355.48
2018-01-13T05:52:54.442Z,98349.81
2018-01-13T05:55:26.321Z,98349.81
2018-01-13T05:57:57.383Z,98353.27
2018-01-13T06:00:30.249Z,98356.69
2018-01-13T06:03:01.711Z,98356.69
2018-01-13T06:05:32.837Z,98360.86
2018-01-13T06:08:03.933Z,98360.92
2018-01-13T06:10:35.137Z,98363.13
2018-01-13T06:13:06.199Z,98365.77
2018-01-13T06:15:37.414Z,98362.13
2018-01-13T06:18:08.523Z,98362.19
2018-01-13T06:20:39.601Z,98361.14
2018-01-13T06:23:10.659Z,98356.84
2018-01-13T06:25:41.787Z,98353.42
2018-01-13T06:28:13.064Z,98350.41
2018-01-13T06:30:44.206Z,98349.94
2018-01-13T06:33:15.971Z,98349.13
2018-01-13T06:35:47.329Z,98352.64
2018-01-13T06:38:18.440Z,98349.75
2018-01-13T06:40:49.517Z,98346.45
2018-01-13T06:43:20.601Z,98347.39
2018-01-13T06:45:51.695Z,98347.73
2018-01-13T06:48:22.783Z,98346.92
2018-01-13T06:50:53.929Z,98346.14
2018-01-13T06:53:25.019Z,98349.97
2018-01-13T06:55:56.087Z,98344.34
2018-01-13T06:58:27.236Z,98343.69
2018-01-13T07:00:58.489Z,98348.11
2018-01-13T07:03:29.737Z,98347.89
2018-01-13T07:06:01.500Z,98336.59
2018-01-13T07:08:32.604Z,98339.23
2018-01-13T07:11:03.717Z,98335.66
2018-01-13T07:13:34.818Z,98340.17
2018-01-13T07:16:07.089Z,98337.97
2018-01-13T07:18:38.194Z,98339.45
2018-01-13T07:21:09.338Z,98340.80
2018-01-13T07:23:41.163Z,98348.95
2018-01-13T07:26:12.310Z,98353.05
2018-01-13T07:28:43.363Z,98354.59
2018-01-13T07:31:14.501Z,98351.67
2018-01-13T07:33:45.608Z,98353.14
2018-01-13T07:36:16.687Z,98346.27
2018-01-13T07:38:47.811Z,98360.45
2018-01-13T07:41:18.900Z,98358.43
2018-01-13T07:43:50.124Z,98353.52
2018-01-13T07:46:21.388Z,98360.23
2018-01-13T07:48:52.634Z,98354.83
2018-01-13T07:51:24.556Z,98354.80
2018-01-13T07:53:56.772Z,98352.02
2018-01-13T07:56:28.018Z,98352.46
2018-01-13T07:58:59.261Z,98349.47
2018-01-13T08:01:30.414Z,98349.72
2018-01-13T08:04:01.662Z,98341.91
2018-01-13T08:06:32.751Z,98348.06
2018-01-13T08:09:03.871Z,98348.48
2018-01-13T08:11:35.104Z,98350.69
2018-01-13T08:16:34.493Z,98353.78
2018-01-13T08:19:05.591Z,98351.96
2018-01-13T08:21:37.018Z,98351.87
2018-01-13T08:24:08.121Z,98358.06
2018-01-13T08:26:39.263Z,98358.55
2018-01-13T08:29:10.455Z,98359.05
2018-01-13T08:31:41.716Z,98357.00
2018-01-13T08:34:12.869Z,98361.32
2018-01-13T08:36:44.220Z,98362.50
2018-01-13T08:39:15.362Z,98357.91
2018-01-13T08:41:46.610Z,98355.85
2018-01-13T08:44:18.401Z,98354.64
2018-01-13T08:46:49.627Z,98356.47
2018-01-13T08:49:20.978Z,98355.32
2018-01-13T08:51:52.843Z,98355.20
2018-01-13T08:54:23.951Z,98358.49
2018-01-13T08:56:55.094Z,98353.05
2018-01-13T08:59:26.239Z,98355.63
2018-01-13T09:02:12.371Z,98352.86
2018-01-13T09:04:43.727Z,98350.09
2018-01-13T09:07:15.073Z,98356.80
2018-01-13T09:09:46.161Z,98353.11
2018-01-13T09:12:17.272Z,98354.23
2018-01-13T09:14:49.334Z,98359.11
2018-01-13T09:17:20.403Z,98353.37
2018-01-13T09:19:51.550Z,98355.19
2018-01-13T09:22:22.773Z,98347.36
2018-01-13T09:24:54.008Z,98349.38
2018-01-13T09:27:25.135Z,98354.30
2018-01-13T09:29:56.338Z,98349.95
2018-01-13T09:32:27.567Z,98355.48
2018-01-13T09:34:58.816Z,98357.67
2018-01-13T09:37:30.373Z,98349.63
2018-01-13T09:40:01.521Z,98346.01
2018-01-13T09:42:32.591Z,98344.78
2018-01-13T09:45:03.761Z,98341.86
2018-01-13T09:47:34.834Z,98347.39
2018-01-13T09:50:05.950Z,98340.86
2018-01-13T09:52:37.099Z,98336.45
2018-01-13T09:55:08.208Z,98330.05
2018-01-13T09:57:39.378Z,98334.86
2018-01-13T10:00:10.447Z,98337.66
2018-01-13T10:02:41.739Z,98329.28
2018-01-13T10:05:12.988Z,98323.95
2018-01-13T10:07:44.129Z,98326.30
2018-01-13T10:10:15.212Z,98320.06
2018-01-13T10:12:46.442Z,98324.40
2018-01-13T10:15:17.784Z,98319.06
2018-01-13T10:17:49.030Z,98314.64
2018-01-13T10:20:20.108Z,98318.95
2018-01-13T10:22:51.308Z,98314.41
2018-01-13T10:25:22.575Z,98312.59
2018-01-13T10:27:53.926Z,98316.22
2018-01-13T10:30:25.063Z,98312.70
2018-01-13T10:32:56.425Z,98313.05
2018-01-13T10:35:27.542Z,98324.98
2018-01-13T10:37:58.659Z,98325.38
2018-01-13T10:40:29.731Z,98316.73
2018-01-13T10:43:01.011Z,98318.24
2018-01-13T10:45:32.157Z,98307.84
2018-01-13T10:48:03.409Z,98304.97
2018-01-13T10:50:34.459Z,98303.38
2018-01-13T10:53:05.686Z,98293.01
2018-01-13T10:55:36.850Z,98297.58
2018-01-13T10:58:07.962Z,98290.50
2018-01-13T11:00:39.246Z,98287.20
2018-01-13T11:03:10.389Z,98280.23
2018-01-13T11:05:41.645Z,98277.98
2018-01-13T11:08:12.754Z,98277.42
2018-01-13T11:10:43.822Z,98275.73
2018-01-13T11:13:14.938Z,98277.86
2018-01-13T11:15:46.126Z,98268.11
2018-01-13T11:18:17.584Z,98261.31
2018-01-13T11:20:48.834Z,98255.88
2018-01-13T11:23:20.075Z,98253.59
2018-01-13T11:25:51.144Z,98251.23
2018-01-13T11:28:22.309Z,98245.69
2018-01-13T11:30:53.386Z,98248.27
2018-01-13T11:33:25.294Z,98241.73
2018-01-13T11:35:56.584Z,98231.42
2018-01-13T11:38:27.679Z,98227.75
2018-01-13T11:40:59.439Z,98226.00
2018-01-13T11:43:30.790Z,98218.19
2018-01-13T11:46:02.039Z,98224.25
2018-01-13T11:48:33.375Z,98211.17
2018-01-13T11:51:04.457Z,98214.82
2018-01-13T11:53:35.679Z,98217.55
2018-01-13T11:56:07.033Z,98216.59
2018-01-13T11:58:38.156Z,98219.80
2018-01-13T12:01:09.434Z,98210.83
2018-01-13T12:03:40.678Z,98208.19
2018-01-13T12:09:08.351Z,98212.14
2018-01-13T12:11:39.498Z,98209.27
2018-01-13T12:14:10.642Z,98204.80
2018-01-13T12:17:44.833Z,98195.98
2018-01-13T12:20:15.937Z,98196.77
2018-01-13T12:22:47.090Z,98192.94
2018-01-13T12:25:18.214Z,98194.05
2018-01-13T12:27:49.355Z,98195.16
2018-01-13T12:30:20.451Z,98187.10
2018-01-13T12:32:51.610Z,98189.52
2018-01-13T12:35:22.761Z,98177.83
2018-01-13T12:37:54.012Z,98174.69
2018-01-13T12:40:25.362Z,98172.73
2018-01-13T12:42:56.611Z,98175.23
2018-01-13T12:45:27.702Z,98173.93
2018-01-13T12:47:58.900Z,98174.13
2018-01-13T12:50:31.175Z,98180.59
2018-01-13T12:53:02.425Z,98180.39
2018-01-13T12:55:33.776Z,98177.87
2018-01-13T12:58:04.981Z,98175.59
2018-01-13T13:00:36.135Z,98173.77
2018-01-13T13:03:07.232Z,98175.92
2018-01-13T13:05:38.352Z,98169.89
2018-01-13T13:08:12.475Z,98176.89
2018-01-13T13:10:43.830Z,98170.84
2018-01-13T13:13:14.918Z,98170.39
2018-01-13T13:15:46.028Z,98167.44
2018-01-13T13:18:17.146Z,98166.78
2018-01-13T13:20:48.340Z,98171.95
2018-01-13T13:23:20.179Z,98167.69
2018-01-13T13:25:51.321Z,98167.61
2018-01-13T13:28:22.471Z,98165.64
2018-01-13T13:30:53.621Z,98161.99
2018-01-13T13:33:24.871Z,98163.10
2018-01-13T13:35:55.979Z,98161.38
2018-01-13T13:38:27.164Z,98154.92
2018-01-13T13:40:58.321Z,98149.64
2018-01-13T13:43:29.425Z,98153.09
2018-01-13T13:46:00.536Z,98152.61
2018-01-13T13:48:32.273Z,98154.16
2018-01-13T13:51:03.360Z,98153.05
2018-01-13T13:53:34.533Z,98150.34
2018-01-13T13:56:05.706Z,98151.02
2018-01-13T13:58:36.954Z,98152.11
2018-01-13T14:01:28.443Z,98153.81
2018-01-13T14:03:39.457Z,98155.75
2018-01-13T14:06:10.575Z,98155.52
2018-01-13T14:08:41.714Z,98159.55
2018-01-13T14:11:12.996Z,98158.81
2018-01-13T14:13:44.233Z,98160.91
2018-01-13T14:16:15.353Z,98155.19
2018-01-13T14:18:46.522Z,98161.28
2018-01-13T14:21:17.686Z,98162.09
2018-01-13T14:23:48.809Z,98161.89
2018-01-13T14:26:19.862Z,98161.30
2018-01-13T14:28:50.997Z,98158.88
2018-01-13T14:31:22.168Z,98155.94
2018-01-13T14:33:53.309Z,98158.87
2018-01-13T14:36:24.412Z,98150.95
2018-01-13T14:38:55.474Z,98155.27
2018-01-13T14:41:26.638Z,98153.55
2018-01-13T14:43:57.748Z,98152.47
2018-01-13T14:46:28.852Z,98159.19
2018-01-13T14:49:00.004Z,98159.11
2018-01-13T14:51:31.127Z,98152.34
2018-01-13T14:54:03.110Z,98160.09
2018-01-13T14:56:34.353Z,98159.59
2018-01-13T14:59:06.007Z,98157.08
2018-01-13T15:01:37.126Z,98155.37
2018-01-13T15:04:08.413Z,98156.25
2018-01-13T15:06:39.764Z,98154.00
2018-01-13T15:09:10.881Z,98151.86
2018-01-13T15:11:42.820Z,98158.73
2018-01-13T15:14:14.028Z,98162.75
2018-01-13T15:16:45.117Z,98160.45
2018-01-13T15:19:16.187Z,98167.25
2018-01-13T15:21:47.566Z,98163.78
2018-01-13T15:24:18.654Z,98167.48
2018-01-13T15:26:49.965Z,98160.36
2018-01-13T15:29:21.092Z,98164.75
2018-01-13T15:31:52.383Z,98166.76
2018-01-13T15:36:59.565Z,98172.43
2018-01-13T15:41:40.275Z,98173.47
2018-01-13T15:44:11.414Z,98171.41
2018-01-13T15:46:42.514Z,98167.94
2018-01-13T15:49:13.831Z,98160.84
2018-01-13T15:51:45.581Z,98167.61
2018-01-13T15:54:16.712Z,98171.75
2018-01-13T15:56:48.274Z,98172.12
2018-01-13T15:59:19.523Z,98167.25
2018-01-13T16:01:50.647Z,98161.56
2018-01-13T16:04:21.921Z,98164.08
2018-01-13T16:06:53.167Z,98173.88
2018-01-13T16:09:24.330Z,98157.33
2018-01-13T16:11:55.454Z,98158.31
2018-01-13T16:14:26.492Z,98161.84
2018-01-13T16:16:57.693Z,98160.48
2018-01-13T16:19:28.746Z,98166.76
2018-01-13T16:21:59.927Z,98167.86
2018-01-13T16:24:31.196Z,98172.13
2018-01-13T16:27:03.842Z,98168.80
2018-01-13T16:29:35.234Z,98167.27
2018-01-13T16:32:06.485Z,98167.54
2018-01-13T16:34:37.634Z,98163.11
2018-01-13T16:37:08.771Z,98169.66
2018-01-13T16:39:40.128Z,98169.35
2018-01-13T16:42:11.925Z,98174.95
2018-01-13T16:44:43.025Z,98172.05
2018-01-13T16:47:14.277Z,98176.08
2018-01-13T16:49:45.375Z,98173.17
2018-01-13T16:52:16.522Z,98178.32
2018-01-13T16:54:47.827Z,98177.72
2018-01-13T16:57:18.966Z,98176.33
2018-01-13T16:59:50.212Z,98176.61
2018-01-13T17:02:21.576Z,98181.25
2018-01-13T17:04:52.682Z,98179.41
2018-01-13T17:07:23.887Z,98175.38
2018-01-13T17:09:55.008Z,98175.48
2018-01-13T17:12:26.368Z,98177.11
2018-01-13T17:14:57.464Z,98181.36
2018-01-13T17:17:28.775Z,98180.95
2018-01-13T17:19:59.847Z,98181.56
2018-01-13T17:22:30.941Z,98176.41
2018-01-13T17:25:03.906Z,98178.83
2018-01-13T17:27:35.193Z,98175.32
2018-01-13T17:30:06.271Z,98178.27
2018-01-13T17:32:38.349Z,98175.50
2018-01-13T17:35:09.474Z,98171.76
2018-01-13T17:37:40.808Z,98179.73
2018-01-13T17:40:12.468Z,98178.55
2018-01-13T17:42:43.815Z,98178.80
2018-01-13T17:45:15.064Z,98177.41
2018-01-13T17:47:46.417Z,98171.75
2018-01-13T17:50:17.665Z,98176.46
2018-01-13T17:52:48.813Z,98174.47
2018-01-13T17:55:19.986Z,98176.66
2018-01-13T17:57:51.110Z,98169.22
2018-01-13T18:00:22.213Z,98165.82
2018-01-13T18:02:53.606Z,98153.94
2018-01-13T18:05:24.754Z,98156.97
2018-01-13T18:07:56.001Z,98146.03
2018-01-13T18:10:27.060Z,98154.25
2018-01-13T18:12:58.296Z,98155.67
2018-01-13T18:15:29.441Z,98156.48
2018-01-13T18:18:00.572Z,98158.44
2018-01-13T18:20:31.646Z,98162.59
2018-01-13T18:23:02.829Z,98160.17
2018-01-13T18:25:33.896Z,98159.27
2018-01-13T18:28:05.893Z,98153.73
2018-01-13T18:30:37.144Z,98160.28
2018-01-13T18:33:08.231Z,98156.69
2018-01-13T18:35:39.435Z,98159.72
2018-01-13T18:38:10.755Z,98169.34
2018-01-13T18:40:41.922Z,98162.81
2018-01-13T18:43:13.286Z,98167.14
2018-01-13T18:45:44.406Z,98161.28
2018-01-13T18:48:16.399Z,98160.69
2018-01-13T18:50:47.435Z,98158.77
2018-01-13T18:53:18.694Z,98161.05
2018-01-13T18:55:50.044Z,98164.66
2018-01-13T18:58:21.123Z,98158.72
2018-01-13T19:00:52.219Z,98158.63
2018-01-13T19:03:23.279Z,98168.27
2018-01-13T19:05:54.412Z,98168.56
2018-01-13T19:08:25.489Z,98162.42
2018-01-13T19:10:56.611Z,98159.00
2018-01-13T19:13:27.869Z,98161.13
2018-01-13T19:15:59.122Z,98167.49
2018-01-13T19:18:30.201Z,98154.44
2018-01-13T19:21:01.504Z,98150.83
2018-01-13T19:23:32.567Z,98135.02
2018-01-13T19:26:03.910Z,98136.77
2018-01-13T19:28:35.132Z,98148.36
2018-01-13T19:31:06.320Z,98146.54
2018-01-13T19:33:37.538Z,98152.86
2018-01-13T19:36:08.703Z,98154.55
2018-01-13T19:38:39.744Z,98158.54
2018-01-13T19:41:10.997Z,98163.23
2018-01-13T19:43:42.348Z,98160.42
2018-01-13T19:46:13.432Z,98155.31
2018-01-13T19:48:44.644Z,98152.45
2018-01-13T19:51:15.765Z,98160.38
2018-01-13T19:53:46.881Z,98150.47
2018-01-13T19:56:17.953Z,98155.91
2018-01-13T19:58:49.231Z,98151.70
2018-01-13T20:01:20.823Z,98154.02
2018-01-13T20:03:51.977Z,98153.95
2018-01-13T20:06:23.183Z,98152.55
2018-01-13T20:08:54.301Z,98159.30
2018-01-13T20:11:25.479Z,98151.57
2018-01-13T20:13:56.628Z,98152.69
2018-01-13T20:16:27.976Z,98150.66
2018-01-13T20:18:59.209Z,98152.19
2018-01-13T20:21:30.340Z,98158.72
2018-01-13T20:24:01.412Z,98160.72
2018-01-13T20:26:32.771Z,98154.49
2018-01-13T20:29:03.908Z,98158.41
2018-01-13T20:31:35.002Z,98157.90
2018-01-13T20:34:06.106Z,98150.15
2018-01-13T20:36:37.358Z,98158.41
2018-01-13T20:39:08.448Z,98156.19
2018-01-13T20:41:39.560Z,98163.95
2018-01-13T20:44:10.659Z,98157.09
2018-01-13T20:46:42.047Z,98155.98
2018-01-13T20:49:13.193Z,98158.90
2018-01-13T20:51:44.360Z,98161.48
2018-01-13T20:54:15.471Z,98160.39
2018-01-13T20:56:46.838Z,98146.73
2018-01-13T20:59:17.943Z,98149.64
2018-01-13T21:01:49.084Z,98155.77
2018-01-13T21:04:20.150Z,98151.52
2018-01-13T21:06:51.276Z,98150.94
2018-01-13T21:09:22.575Z,98154.86
2018-01-13T21:11:53.925Z,98151.25
2018-01-13T21:14:25.706Z,98146.84
2018-01-13T21:16:56.795Z,98146.95
2018-01-13T21:19:27.929Z,98146.33
2018-01-13T21:21:59.002Z,98144.70
2018-01-13T21:24:30.174Z,98150.99
2018-01-13T21:27:01.239Z,98149.35
2018-01-13T21:29:32.537Z,98141.63
2018-01-13T21:32:03.921Z,98130.72
2018-01-13T21:34:35.048Z,98132.03
2018-01-13T21:37:06.078Z,98128.61
2018-01-13T21:39:37.210Z,98132.64
2018-01-13T21:42:08.296Z,98132.73
2018-01-13T21:44:39.385Z,98137.92
2018-01-13T21:47:10.597Z,98138.53
2018-01-13T21:49:41.659Z,98136.72
2018-01-13T21:52:12.789Z,98139.16
2018-01-13T21:54:43.874Z,98134.45
2018-01-13T21:57:15.045Z,98130.52
2018-01-13T21:59:46.121Z,98127.79
2018-01-13T22:02:17.377Z,98128.30
2018-01-13T22:04:49.318Z,98129.68
2018-01-13T22:07:20.595Z,98134.28
2018-01-13T22:09:51.943Z,98136.40
2018-01-13T22:12:23.197Z,98137.02
2018-01-13T22:14:54.479Z,98131.08
2018-01-13T22:17:25.546Z,98133.47
2018-01-13T22:19:56.736Z,98133.06
2018-01-13T22:22:27.988Z,98129.27
2018-01-13T22:24:59.105Z,98128.46
2018-01-13T22:27:30.199Z,98141.02
2018-01-13T22:30:01.254Z,98129.77
2018-01-13T22:32:32.472Z,98132.59
2018-01-13T22:35:03.589Z,98124.35
2018-01-13T22:37:35.490Z,98126.66
2018-01-13T22:40:06.833Z,98126.25
2018-01-13T22:42:38.067Z,98122.31
2018-01-13T22:45:10.045Z,98117.35
2018-01-13T22:47:41.146Z,98114.74
2018-01-13T22:50:12.306Z,98116.17
2018-01-13T22:52:43.592Z,98119.20
2018-01-13T22:55:15.416Z,98114.58
2018-01-13T22:57:46.604Z,98110.28
2018-01-13T23:00:17.741Z,98105.68
2018-01-13T23:02:48.870Z,98104.25
2018-01-13T23:05:20.144Z,98098.52
2018-01-13T23:07:51.264Z,98096.59
2018-01-13T23:10:22.441Z,98094.00
2018-01-13T23:12:53.676Z,98093.02
2018-01-13T23:15:24.950Z,98086.70
2018-01-13T23:17:56.802Z,98087.08
2018-01-13T23:20:27.938Z,98082.48
2018-01-13T23:22:58.988Z,98078.36
2018-01-13T23:25:30.346Z,98075.95
2018-01-13T23:28:01.433Z,98073.72
2018-01-13T23:30:32.740Z,98071.11
2018-01-13T23:33:03.816Z,98073.41
2018-01-13T23:35:35.034Z,98073.05
2018-01-13T23:38:06.183Z,98071.12
2018-01-13T23:40:37.533Z,98075.11
2018-01-13T23:43:08.784Z,98078.91
2018-01-13T23:45:39.881Z,98077.55
2018-01-13T23:48:10.987Z,98075.47
2018-01-13T23:50:42.217Z,98070.04
2018-01-13T23:53:13.330Z,98076.68
2018-01-13T23:55:44.518Z,98073.45
2018-01-13T23:58:16.241Z,98070.19
